Time;durP1;ratioP1;P1;durP2;ratioP2;P2;SDS_P1;SDS_P2;PMS_P1;PMS_P2;Temp;Humidity;BMP_temperature;BMP_pressure;BME280_temperature;BME280_humidity;BME280_pressure;Samples;Min_cycle;Max_cycle;Signal;HPM_P1;HPM_P2
2022/12/06 00:01:23;;;;;;;34.85;10.43;;;0.80;99.90;;;;;;5026341;28;20437;-76
2022/12/06 00:03:55;;;;;;;35.75;11.57;;;0.80;99.90;;;;;;5027310;28;20457;-76
2022/12/06 00:06:23;;;;;;;34.03;10.98;;;0.80;99.90;;;;;;5024518;28;20037;-76
2022/12/06 00:08:49;;;;;;;32.35;10.95;;;0.80;99.90;;;;;;5026507;28;20040;-76
2022/12/06 00:11:22;;;;;;;30.10;10.10;;;0.80;99.90;;;;;;5023560;28;20140;-76
2022/12/06 00:13:52;;;;;;;26.20;9.57;;;0.90;99.90;;;;;;5026835;28;20492;-76
2022/12/06 00:16:17;;;;;;;25.80;10.43;;;0.90;99.90;;;;;;5030580;28;20021;-76
2022/12/06 00:18:45;;;;;;;38.58;10.27;;;0.90;99.90;;;;;;5036304;28;20445;-76
2022/12/06 00:21:11;;;;;;;33.38;10.13;;;0.90;99.90;;;;;;5027441;28;20033;-76
2022/12/06 00:23:39;;;;;;;22.00;9.07;;;0.90;99.90;;;;;;5028279;28;20045;-76
2022/12/06 00:26:05;;;;;;;28.38;9.98;;;0.90;99.90;;;;;;5029335;28;20029;-76
2022/12/06 00:28:32;;;;;;;39.88;9.85;;;1.00;99.90;;;;;;5017467;28;20170;-77
2022/12/06 00:30:59;;;;;;;31.27;10.23;;;0.90;99.90;;;;;;5028040;28;20029;-76
2022/12/06 00:33:25;;;;;;;34.78;10.50;;;0.90;99.90;;;;;;5026272;28;20079;-76
2022/12/06 00:35:58;;;;;;;26.50;9.38;;;1.00;99.90;;;;;;5029733;28;20077;-76
2022/12/06 00:38:25;;;;;;;30.05;9.45;;;1.00;99.90;;;;;;5030505;28;20042;-77
2022/12/06 00:41:07;;;;;;;32.97;9.30;;;1.00;99.90;;;;;;5027455;28;20048;-77
2022/12/06 00:43:34;;;;;;;38.75;10.25;;;1.00;99.90;;;;;;5023003;28;20029;-76
2022/12/06 00:46:00;;;;;;;24.05;9.48;;;1.00;99.90;;;;;;5027072;28;20496;-77
2022/12/06 00:48:27;;;;;;;38.53;11.15;;;1.00;99.90;;;;;;5028116;28;20060;-76
2022/12/06 00:50:53;;;;;;;36.33;11.18;;;1.00;99.90;;;;;;5022469;28;20017;-76
2022/12/06 00:53:19;;;;;;;31.55;9.95;;;1.00;99.90;;;;;;5025640;28;21016;-77
2022/12/06 00:55:45;;;;;;;29.13;9.88;;;1.00;99.90;;;;;;5011423;28;20097;-76
2022/12/06 00:58:11;;;;;;;25.25;10.30;;;1.00;99.90;;;;;;5016320;28;20052;-76
2022/12/06 01:00:36;;;;;;;36.10;9.18;;;1.10;99.90;;;;;;5026695;28;20033;-76
2022/12/06 01:03:02;;;;;;;24.05;9.40;;;1.00;99.90;;;;;;5026582;28;20040;-77
2022/12/06 01:05:29;;;;;;;31.42;9.38;;;1.10;99.90;;;;;;5024547;28;20541;-77
2022/12/06 01:07:54;;;;;;;29.52;9.27;;;1.10;99.90;;;;;;5034015;28;20018;-77
2022/12/06 01:10:20;;;;;;;29.80;9.85;;;1.10;99.90;;;;;;5026329;28;20116;-77
2022/12/06 01:12:45;;;;;;;31.70;9.07;;;1.10;99.90;;;;;;5017407;28;20096;-76
2022/12/06 01:15:11;;;;;;;25.33;9.75;;;1.10;99.90;;;;;;5014414;28;20029;-76
2022/12/06 01:17:37;;;;;;;33.55;9.48;;;1.10;99.90;;;;;;5037149;28;20491;-77
2022/12/06 01:20:04;;;;;;;25.38;9.43;;;1.10;99.90;;;;;;5037314;28;20053;-77
2022/12/06 01:22:30;;;;;;;25.02;9.23;;;1.10;99.90;;;;;;5029228;28;20057;-77
2022/12/06 01:24:55;;;;;;;16.00;8.43;;;1.10;99.90;;;;;;5020281;28;21116;-76
2022/12/06 01:27:21;;;;;;;29.63;9.18;;;1.10;99.90;;;;;;5028261;28;20093;-76
2022/12/06 01:29:46;;;;;;;23.05;9.30;;;1.10;99.90;;;;;;5021485;28;20028;-77
2022/12/06 01:32:12;;;;;;;38.72;9.15;;;1.20;99.90;;;;;;5024431;28;20025;-76
2022/12/06 01:34:37;;;;;;;54.42;9.18;;;1.20;99.90;;;;;;5022053;28;20033;-76
2022/12/06 01:37:03;;;;;;;37.60;8.52;;;1.20;99.90;;;;;;5022442;28;20490;-76
2022/12/06 01:39:29;;;;;;;17.38;8.95;;;1.10;99.90;;;;;;5020638;28;20026;-76
2022/12/06 01:41:54;;;;;;;31.15;9.55;;;1.20;99.90;;;;;;5021232;28;20029;-76
2022/12/06 01:44:40;;;;;;;29.77;9.50;;;1.10;99.90;;;;;;5013073;28;20112;-76
2022/12/06 01:47:28;;;;;;;27.60;9.20;;;1.20;99.90;;;;;;5018879;28;20113;-77
2022/12/06 01:49:57;;;;;;;32.40;9.27;;;1.20;99.90;;;;;;5008091;28;20093;-76
2022/12/06 01:52:27;;;;;;;32.53;9.15;;;1.20;99.90;;;;;;5023722;28;20029;-77
2022/12/06 01:54:53;;;;;;;36.30;9.50;;;1.20;99.90;;;;;;5016901;28;20029;-76
2022/12/06 01:57:18;;;;;;;35.88;9.40;;;1.20;99.90;;;;;;5016755;28;20033;-77
2022/12/06 01:59:44;;;;;;;22.67;9.27;;;1.20;99.90;;;;;;5024835;28;20025;-77
2022/12/06 02:02:11;;;;;;;22.10;8.82;;;1.30;99.90;;;;;;5027582;28;20093;-76
2022/12/06 02:04:36;;;;;;;33.80;8.80;;;1.30;99.90;;;;;;5020129;28;20315;-77
2022/12/06 02:07:03;;;;;;;33.75;9.02;;;1.30;99.90;;;;;;5028215;28;20036;-77
2022/12/06 02:09:29;;;;;;;19.10;8.65;;;1.30;99.90;;;;;;5022589;28;20334;-77
2022/12/06 02:11:55;;;;;;;24.05;9.10;;;1.30;99.90;;;;;;5032095;28;20106;-77
2022/12/06 02:14:25;;;;;;;23.15;8.82;;;1.40;99.90;;;;;;5023980;28;20037;-77
2022/12/06 02:17:10;;;;;;;24.17;9.33;;;1.40;99.90;;;;;;5028198;28;20112;-77
2022/12/06 02:20:09;;;;;;;26.58;8.80;;;1.40;99.90;;;;;;5043048;28;20404;-77
2022/12/06 02:22:43;;;;;;;18.23;8.10;;;1.40;99.90;;;;;;5020707;28;20116;-76
2022/12/06 02:25:21;;;;;;;28.45;9.52;;;1.50;99.90;;;;;;5033835;28;20097;-76
2022/12/06 02:28:12;;;;;;;22.40;9.25;;;1.50;99.90;;;;;;5026213;28;20029;-76
2022/12/06 02:30:59;;;;;;;;;;;1.50;99.90;;;;;;5024617;28;20116;-77
2022/12/06 02:33:50;;;;;;;17.17;7.43;;;1.50;99.90;;;;;;5025882;28;19901;-76
2022/12/06 02:36:26;;;;;;;;;;;1.60;99.90;;;;;;5023638;28;20030;-76
2022/12/06 02:39:01;;;;;;;24.63;7.50;;;1.60;99.90;;;;;;5029276;28;19901;-77
2022/12/06 02:41:46;;;;;;;21.58;8.30;;;1.60;99.90;;;;;;5031558;28;20036;-76
2022/12/06 02:44:23;;;;;;;40.75;8.65;;;1.60;99.90;;;;;;5029530;28;20461;-77
2022/12/06 02:46:51;;;;;;;19.95;8.95;;;1.70;99.90;;;;;;5034058;28;20425;-76
2022/12/06 02:49:18;;;;;;;36.58;8.80;;;1.70;99.90;;;;;;5026493;28;20034;-76
2022/12/06 02:51:46;;;;;;;17.38;8.65;;;1.70;99.90;;;;;;5029021;28;20395;-76
2022/12/06 02:54:12;;;;;;;29.08;8.95;;;1.70;99.90;;;;;;5029200;28;20038;-76
2022/12/06 02:56:38;;;;;;;20.42;8.80;;;1.70;99.90;;;;;;5026436;28;20073;-77
2022/12/06 02:59:04;;;;;;;23.48;9.10;;;1.70;99.90;;;;;;5028258;28;20029;-76
2022/12/06 03:01:33;;;;;;;18.00;8.85;;;1.70;99.90;;;;;;5028904;28;20025;-76
2022/12/06 03:04:45;;;;;;;22.25;9.25;;;1.80;99.90;;;;;;5017960;28;20052;-76
2022/12/06 03:07:30;;;;;;;18.90;8.30;;;1.80;99.90;;;;;;5029509;28;20465;-76
2022/12/06 03:10:20;;;;;;;22.88;9.07;;;1.80;99.90;;;;;;5026753;28;20042;-76
2022/12/06 03:12:59;;;;;;;24.45;8.35;;;1.80;99.90;;;;;;5012724;28;20080;-76
2022/12/06 03:15:40;;;;;;;19.40;8.20;;;1.90;99.90;;;;;;5033512;28;20179;-76
2022/12/06 03:18:30;;;;;;;16.83;8.50;;;1.90;99.90;;;;;;5030617;28;20026;-77
2022/12/06 03:21:04;;;;;;;17.30;8.43;;;1.90;99.90;;;;;;5025175;28;20021;-76
2022/12/06 03:23:42;;;;;;;15.95;8.90;;;2.00;99.90;;;;;;5026413;28;20473;-77
2022/12/06 03:26:12;;;;;;;16.80;7.97;;;2.00;99.90;;;;;;5026890;28;20082;-76
2022/12/06 03:28:38;;;;;;;16.42;8.60;;;2.00;99.90;;;;;;5029099;28;20026;-77
2022/12/06 03:31:08;;;;;;;17.75;8.00;;;2.10;99.90;;;;;;5024559;28;20342;-77
2022/12/06 03:33:41;;;;;;;14.63;7.83;;;2.20;99.90;;;;;;5020272;28;20022;-77
2022/12/06 03:36:08;;;;;;;16.35;6.95;;;2.30;99.90;;;;;;5029703;28;20709;-76
2022/12/06 03:38:39;;;;;;;16.73;7.15;;;2.40;99.90;;;;;;5026407;28;20038;-77
2022/12/06 03:41:06;;;;;;;14.55;6.82;;;2.60;99.90;;;;;;5018953;28;20352;-76
2022/12/06 03:43:32;;;;;;;16.85;7.05;;;2.70;99.90;;;;;;5029667;28;20021;-77
2022/12/06 03:46:15;;;;;;;20.15;7.22;;;2.80;99.90;;;;;;5024140;28;20037;-76
2022/12/06 03:48:57;;;;;;;19.02;7.00;;;2.90;99.90;;;;;;5029817;28;20069;-76
2022/12/06 03:51:28;;;;;;;20.13;7.40;;;3.10;99.90;;;;;;5038639;28;20067;-76
2022/12/06 03:53:57;;;;;;;20.55;7.72;;;3.10;99.90;;;;;;5033229;28;20177;-77
2022/12/06 03:56:23;;;;;;;21.10;7.78;;;3.20;99.90;;;;;;5034632;28;20865;-76
2022/12/06 03:58:49;;;;;;;21.38;8.18;;;3.30;99.90;;;;;;5031376;28;20432;-77
2022/12/06 04:01:15;;;;;;;21.88;7.93;;;3.40;99.90;;;;;;5032405;28;20087;-78
2022/12/06 04:03:41;;;;;;;23.40;8.05;;;3.40;99.90;;;;;;5018206;28;20045;-77
2022/12/06 04:06:08;;;;;;;19.25;7.75;;;3.40;99.90;;;;;;5028109;28;20038;-77
2022/12/06 04:08:35;;;;;;;18.33;7.68;;;3.40;99.90;;;;;;5028171;28;20187;-77
2022/12/06 04:11:00;;;;;;;22.25;7.85;;;3.40;99.90;;;;;;5032208;28;20038;-78
2022/12/06 04:13:27;;;;;;;26.83;7.53;;;3.40;99.90;;;;;;5023753;28;20479;-78
2022/12/06 04:15:57;;;;;;;20.73;7.75;;;3.50;99.90;;;;;;5026766;28;20119;-76
2022/12/06 04:18:24;;;;;;;18.38;7.13;;;3.50;99.90;;;;;;5021680;28;20109;-77
2022/12/06 04:23:49;;;;;;;13.73;6.22;;;3.50;99.90;;;;;;5032138;28;20060;-77
2022/12/06 04:26:18;;;;;;;18.90;7.05;;;3.50;99.90;;;;;;5027612;28;20040;-76
2022/12/06 04:39:42;;;;;;;17.55;6.25;;;3.50;99.90;;;;;;5020800;28;20107;-75
2022/12/06 04:44:52;;;;;;;15.77;5.85;;;3.50;99.90;;;;;;5017825;28;20050;-77
2022/12/06 04:47:18;;;;;;;21.40;6.80;;;3.50;99.90;;;;;;5025494;28;20442;-76
2022/12/06 04:49:44;;;;;;;16.75;5.90;;;3.50;99.90;;;;;;5028607;28;20095;-76
2022/12/06 04:52:09;;;;;;;14.18;6.05;;;3.50;99.90;;;;;;5026512;28;20037;-77
2022/12/06 04:54:36;;;;;;;18.65;6.10;;;3.50;99.90;;;;;;5026932;28;20469;-77
2022/12/06 04:57:02;;;;;;;17.52;5.30;;;3.50;99.90;;;;;;5031180;28;20167;-79
2022/12/06 04:59:28;;;;;;;16.05;5.38;;;3.50;99.90;;;;;;5018495;28;20132;-75
2022/12/06 05:01:54;;;;;;;17.00;5.78;;;3.50;99.90;;;;;;5029579;28;20116;-75
2022/12/06 05:04:20;;;;;;;16.48;6.28;;;3.50;99.90;;;;;;5032237;28;20037;-74
2022/12/06 05:06:46;;;;;;;15.18;6.00;;;3.50;99.90;;;;;;5023180;28;20454;-75
2022/12/06 05:09:12;;;;;;;15.40;5.50;;;3.50;99.90;;;;;;5019899;28;20040;-76
2022/12/06 05:11:38;;;;;;;13.25;5.95;;;3.50;99.90;;;;;;5018517;28;20443;-75
2022/12/06 05:14:03;;;;;;;14.45;5.82;;;3.50;99.90;;;;;;5021416;28;20053;-76
2022/12/06 05:16:29;;;;;;;15.73;5.80;;;3.50;99.90;;;;;;5026534;28;20037;-76
2022/12/06 05:18:54;;;;;;;17.70;6.30;;;3.50;99.90;;;;;;5027426;28;20342;-75
2022/12/06 05:21:22;;;;;;;15.70;6.40;;;3.60;99.90;;;;;;5025453;28;20034;-75
2022/12/06 05:23:48;;;;;;;17.85;6.50;;;3.50;99.90;;;;;;5032598;28;20067;-75
2022/12/06 05:26:16;;;;;;;15.00;5.63;;;3.60;99.90;;;;;;5018743;28;20168;-75
2022/12/06 05:28:43;;;;;;;16.35;6.25;;;3.60;99.90;;;;;;5019275;28;20118;-80
2022/12/06 05:31:09;;;;;;;14.05;5.60;;;3.50;99.90;;;;;;5026150;28;20199;-78
2022/12/06 05:33:35;;;;;;;16.05;5.78;;;3.50;99.90;;;;;;5023800;28;20064;-78
2022/12/06 05:36:12;;;;;;;16.40;6.75;;;3.50;99.90;;;;;;5027837;28;20029;-78
2022/12/06 05:38:38;;;;;;;15.27;6.28;;;3.50;99.90;;;;;;5027254;28;20025;-77
2022/12/06 05:41:04;;;;;;;13.57;5.70;;;3.50;99.90;;;;;;5018761;28;20044;-77
2022/12/06 05:43:30;;;;;;;13.60;5.32;;;3.50;99.90;;;;;;5034061;28;20314;-77
2022/12/06 05:45:56;;;;;;;16.48;6.47;;;3.60;99.90;;;;;;5024404;28;20021;-77
2022/12/06 05:48:22;;;;;;;15.77;5.85;;;3.50;99.90;;;;;;5036249;28;20491;-77
2022/12/06 05:50:48;;;;;;;20.27;6.28;;;3.50;99.90;;;;;;5017469;28;20119;-77
2022/12/06 05:53:14;;;;;;;17.05;6.00;;;3.50;99.90;;;;;;5035898;28;20029;-78
2022/12/06 05:55:41;;;;;;;16.35;6.13;;;3.60;99.90;;;;;;5027965;28;20044;-77
2022/12/06 05:58:06;;;;;;;14.48;5.97;;;3.50;99.90;;;;;;5014689;28;20048;-77
2022/12/06 06:00:32;;;;;;;17.80;6.13;;;3.50;99.90;;;;;;5026653;28;20323;-77
2022/12/06 06:02:57;;;;;;;14.65;5.75;;;3.50;99.90;;;;;;5011006;28;20105;-78
2022/12/06 06:05:23;;;;;;;17.70;6.57;;;3.50;99.90;;;;;;5037033;28;20030;-77
2022/12/06 06:07:48;;;;;;;16.65;6.90;;;3.50;99.90;;;;;;5021980;28;20044;-78
2022/12/06 06:10:15;;;;;;;17.15;6.63;;;3.50;99.90;;;;;;5031222;28;20316;-78
2022/12/06 06:12:41;;;;;;;16.40;5.57;;;3.50;99.90;;;;;;5024479;28;20334;-77
2022/12/06 06:15:07;;;;;;;15.88;5.72;;;3.50;99.90;;;;;;5029845;28;20187;-77
2022/12/06 06:17:33;;;;;;;13.30;4.75;;;3.50;99.90;;;;;;5027245;28;20548;-77
2022/12/06 06:20:04;;;;;;;15.00;5.22;;;3.50;99.90;;;;;;5032579;28;20414;-77
2022/12/06 06:22:30;;;;;;;14.47;5.77;;;3.50;99.90;;;;;;5029224;28;20228;-78
2022/12/06 06:24:55;;;;;;;16.92;5.70;;;3.50;99.90;;;;;;5032053;28;20308;-77
2022/12/06 06:27:22;;;;;;;14.38;5.57;;;3.50;99.90;;;;;;5027474;28;20060;-78
2022/12/06 06:29:47;;;;;;;15.05;6.30;;;3.50;99.90;;;;;;5025518;28;20056;-78
2022/12/06 06:32:12;;;;;;;16.70;5.93;;;3.50;99.90;;;;;;5019613;28;20148;-77
2022/12/06 06:34:38;;;;;;;14.27;5.18;;;3.50;99.90;;;;;;5031854;28;20045;-74
2022/12/06 06:37:03;;;;;;;15.00;5.75;;;3.50;99.90;;;;;;5020817;28;20077;-75
2022/12/06 06:39:29;;;;;;;15.82;6.00;;;3.50;99.90;;;;;;5027006;28;20416;-77
2022/12/06 06:41:54;;;;;;;12.93;5.57;;;3.50;99.90;;;;;;5023361;28;20117;-77
2022/12/06 06:44:20;;;;;;;15.93;5.95;;;3.50;99.90;;;;;;5022579;28;20059;-77
2022/12/06 06:46:45;;;;;;;16.50;6.28;;;3.40;99.90;;;;;;5019094;28;20025;-77
2022/12/06 06:49:11;;;;;;;15.90;5.53;;;3.40;99.90;;;;;;5019080;28;20063;-78
2022/12/06 06:51:36;;;;;;;15.30;6.05;;;3.40;99.90;;;;;;5020134;28;20106;-77
2022/12/06 06:54:02;;;;;;;17.13;6.70;;;3.40;99.90;;;;;;5019887;28;20418;-78
2022/12/06 06:56:28;;;;;;;17.13;7.40;;;3.40;99.90;;;;;;5029274;28;20036;-77
2022/12/06 06:58:53;;;;;;;20.73;6.72;;;3.40;99.90;;;;;;5023735;28;20053;-77
2022/12/06 07:01:22;;;;;;;18.13;7.50;;;3.30;99.90;;;;;;5027558;28;20503;-77
2022/12/06 07:03:48;;;;;;;18.50;7.55;;;3.30;99.90;;;;;;5027762;28;20440;-78
2022/12/06 07:06:13;;;;;;;20.13;6.75;;;3.30;99.90;;;;;;5022752;28;20536;-77
2022/12/06 07:08:40;;;;;;;18.13;7.45;;;3.30;99.90;;;;;;5030131;28;20379;-77
2022/12/06 07:11:09;;;;;;;16.92;7.85;;;3.30;99.90;;;;;;5024714;28;20102;-77
2022/12/06 07:13:36;;;;;;;19.33;7.15;;;3.30;99.90;;;;;;5023235;28;20407;-77
2022/12/06 07:16:04;;;;;;;20.52;7.90;;;3.30;99.90;;;;;;5029532;28;20377;-77
2022/12/06 07:18:29;;;;;;;19.38;8.35;;;3.30;99.90;;;;;;5029744;28;20191;-77
2022/12/06 07:21:04;;;;;;;21.10;8.02;;;3.30;99.90;;;;;;5027854;28;20131;-77
2022/12/06 07:23:31;;;;;;;22.77;8.63;;;3.30;99.90;;;;;;5025424;28;20453;-77
2022/12/06 07:26:10;;;;;;;23.05;8.25;;;3.30;99.90;;;;;;5021039;28;20041;-77
2022/12/06 07:28:37;;;;;;;18.65;7.90;;;3.30;99.90;;;;;;5019633;28;20040;-78
2022/12/06 07:31:20;;;;;;;16.83;7.55;;;3.30;99.90;;;;;;5024435;28;20021;-77
2022/12/06 07:33:47;;;;;;;19.30;7.63;;;3.30;99.90;;;;;;5027033;28;20056;-77
2022/12/06 07:36:14;;;;;;;18.98;8.38;;;3.30;99.90;;;;;;5025719;28;20326;-77
2022/12/06 07:38:41;;;;;;;19.92;7.57;;;3.30;99.90;;;;;;5024211;28;20022;-78
2022/12/06 07:46:40;;;;;;;18.52;8.40;;;3.20;99.90;;;;;;5022833;28;20052;-77
2022/12/06 07:49:05;;;;;;;18.42;7.40;;;3.20;99.90;;;;;;5024889;28;20033;-78
2022/12/06 07:51:31;;;;;;;16.38;7.32;;;3.20;99.90;;;;;;5020214;28;20045;-78
2022/12/06 07:53:56;;;;;;;20.77;9.18;;;3.20;99.90;;;;;;5022190;28;20038;-77
2022/12/06 07:56:22;;;;;;;21.30;8.88;;;3.20;99.90;;;;;;5023280;28;20112;-77
2022/12/06 07:58:48;;;;;;;21.25;8.80;;;3.20;99.90;;;;;;5020854;28;20075;-77
2022/12/06 08:01:13;;;;;;;23.02;9.00;;;3.30;99.90;;;;;;5022461;28;20025;-77
2022/12/06 08:03:39;;;;;;;21.15;9.00;;;3.20;99.90;;;;;;5026573;28;20025;-77
2022/12/06 08:06:04;;;;;;;22.63;8.65;;;3.20;99.90;;;;;;5027013;28;20395;-77
2022/12/06 08:08:30;;;;;;;20.42;8.38;;;3.20;99.90;;;;;;5019727;28;20114;-77
2022/12/06 08:11:00;;;;;;;20.40;8.63;;;3.20;99.90;;;;;;5025017;28;20116;-77
2022/12/06 08:13:27;;;;;;;22.83;8.87;;;3.20;99.90;;;;;;5021356;28;20147;-77
2022/12/06 08:15:52;;;;;;;21.27;7.88;;;3.30;99.90;;;;;;5028775;28;20049;-77
2022/12/06 08:18:17;;;;;;;24.15;8.25;;;3.30;99.90;;;;;;5023715;28;20033;-77
2022/12/06 08:20:43;;;;;;;22.70;8.52;;;3.30;99.90;;;;;;5024990;28;20029;-77
2022/12/06 08:23:08;;;;;;;18.30;8.13;;;3.30;99.90;;;;;;5022473;28;20152;-77
2022/12/06 08:25:34;;;;;;;19.98;8.25;;;3.30;99.90;;;;;;5022115;28;20034;-77
2022/12/06 08:27:59;;;;;;;19.08;8.75;;;3.30;99.90;;;;;;5022950;28;20045;-77
2022/12/06 08:30:25;;;;;;;18.13;8.35;;;3.30;99.90;;;;;;5020999;28;20142;-78
2022/12/06 08:32:50;;;;;;;20.95;8.32;;;3.30;99.90;;;;;;5021587;28;20025;-78
2022/12/06 08:35:16;;;;;;;23.13;8.32;;;3.30;99.90;;;;;;5020312;28;20119;-77
2022/12/06 08:37:41;;;;;;;19.70;8.25;;;3.30;99.90;;;;;;5025895;28;20021;-78
2022/12/06 08:40:07;;;;;;;21.55;9.75;;;3.30;99.90;;;;;;5017954;28;20104;-78
2022/12/06 08:42:33;;;;;;;23.05;9.02;;;3.40;99.90;;;;;;5025419;28;20051;-77
2022/12/06 08:44:58;;;;;;;21.58;9.25;;;3.30;99.90;;;;;;5019928;28;20029;-77
2022/12/06 08:47:24;;;;;;;22.73;9.25;;;3.30;99.90;;;;;;5023956;28;20029;-78
2022/12/06 08:49:50;;;;;;;22.45;10.00;;;3.30;99.90;;;;;;5020693;28;20050;-78
2022/12/06 08:52:15;;;;;;;21.30;8.88;;;3.30;99.90;;;;;;5024764;28;20148;-78
2022/12/06 08:54:41;;;;;;;20.77;8.82;;;3.20;99.90;;;;;;5020588;28;20190;-77
2022/12/06 08:57:07;;;;;;;24.10;10.60;;;3.20;99.90;;;;;;5017380;28;20314;-77
2022/12/06 08:59:32;;;;;;;25.58;10.27;;;3.20;99.90;;;;;;5024436;28;20040;-77
2022/12/06 09:01:58;;;;;;;24.10;9.73;;;3.30;99.90;;;;;;5018623;28;20033;-78
2022/12/06 09:04:23;;;;;;;24.38;10.20;;;3.20;99.90;;;;;;5023539;28;20367;-77
2022/12/06 09:06:49;;;;;;;27.08;10.15;;;3.20;99.90;;;;;;5017461;28;20045;-77
2022/12/06 09:09:16;;;;;;;21.95;9.88;;;3.30;99.90;;;;;;5019399;28;20119;-77
2022/12/06 09:11:44;;;;;;;26.23;11.13;;;3.30;99.90;;;;;;5023405;28;20021;-78
2022/12/06 09:14:15;;;;;;;22.58;10.25;;;3.30;99.90;;;;;;5025995;28;20034;-78
2022/12/06 09:16:43;;;;;;;24.35;10.68;;;3.20;99.90;;;;;;5027796;28;20026;-78
2022/12/06 09:19:09;;;;;;;27.90;11.38;;;3.20;99.90;;;;;;5021463;28;20222;-77
2022/12/06 09:21:38;;;;;;;27.92;11.50;;;3.20;99.90;;;;;;5023295;28;20033;-77
2022/12/06 09:24:04;;;;;;;24.13;10.68;;;3.30;99.90;;;;;;5012201;28;20045;-77
2022/12/06 09:26:30;;;;;;;30.35;11.43;;;3.30;99.90;;;;;;5014182;28;20044;-77
2022/12/06 09:28:57;;;;;;;28.67;11.63;;;3.30;99.90;;;;;;5014456;28;20399;-77
2022/12/06 09:31:24;;;;;;;25.70;11.77;;;3.30;99.90;;;;;;5020203;28;20328;-77
2022/12/06 09:33:49;;;;;;;25.15;11.20;;;3.30;99.90;;;;;;5016022;28;20037;-77
2022/12/06 09:36:27;;;;;;;26.30;11.63;;;3.30;99.90;;;;;;5027769;28;20322;-77
2022/12/06 09:39:00;;;;;;;25.42;11.98;;;3.30;99.90;;;;;;5014796;28;20029;-77
2022/12/06 09:41:43;;;;;;;25.58;12.23;;;3.30;99.90;;;;;;5029424;28;20029;-77
2022/12/06 09:44:41;;;;;;;27.13;12.05;;;3.40;99.90;;;;;;5019117;28;20048;-77
2022/12/06 09:47:46;;;;;;;23.77;11.40;;;3.40;99.90;;;;;;5014758;28;20051;-77
2022/12/06 09:50:35;;;;;;;25.77;11.35;;;3.30;99.90;;;;;;5021812;28;20029;-77
2022/12/06 09:53:27;;;;;;;30.52;11.95;;;3.30;99.90;;;;;;5017558;28;20091;-77
2022/12/06 09:56:05;;;;;;;30.65;12.93;;;3.30;99.90;;;;;;5023876;28;20073;-77
2022/12/06 09:59:03;;;;;;;31.65;12.57;;;3.30;99.90;;;;;;5022656;28;20036;-77
2022/12/06 10:02:04;;;;;;;29.05;12.25;;;3.30;99.90;;;;;;5025405;28;20034;-77
2022/12/06 10:04:57;;;;;;;27.45;12.15;;;3.40;99.90;;;;;;5024992;28;20029;-77
2022/12/06 10:07:54;;;;;;;25.20;11.38;;;3.30;99.90;;;;;;5026094;28;20438;-77
2022/12/06 10:10:38;;;;;;;25.25;11.48;;;3.30;99.90;;;;;;5024269;28;20029;-77
2022/12/06 10:13:18;;;;;;;31.67;12.30;;;3.30;99.90;;;;;;5033514;28;20057;-78
2022/12/06 10:15:49;;;;;;;30.05;12.93;;;3.30;99.90;;;;;;5030416;28;20041;-78
2022/12/06 10:18:38;;;;;;;;;;;3.30;99.90;;;;;;5027569;28;20056;-77
2022/12/06 10:21:15;;;;;;;35.78;12.38;;;3.30;99.90;;;;;;5025617;28;20249;-77
2022/12/06 10:23:55;;;;;;;27.50;13.40;;;3.30;99.90;;;;;;5026216;28;20513;-78
2022/12/06 10:26:53;;;;;;;31.97;13.70;;;3.20;99.90;;;;;;5020742;28;20105;-77
2022/12/06 10:29:43;;;;;;;33.10;14.80;;;3.30;99.90;;;;;;5022754;28;20069;-77
2022/12/06 10:32:16;;;;;;;36.65;16.33;;;3.30;99.90;;;;;;5022150;28;20115;-77
2022/12/06 10:35:16;;;;;;;40.85;16.83;;;3.20;99.90;;;;;;5018793;28;20076;-77
2022/12/06 10:37:54;;;;;;;34.00;16.10;;;3.20;99.90;;;;;;5023706;28;20022;-77
2022/12/06 10:40:26;;;;;;;36.72;17.08;;;3.20;99.90;;;;;;5021385;28;20036;-77
2022/12/06 10:43:31;;;;;;;41.47;17.20;;;3.10;99.90;;;;;;5030212;28;20033;-77
2022/12/06 10:49:33;;;;;;;40.85;16.88;;;3.10;99.90;;;;;;5016339;28;20461;-78
2022/12/06 10:52:36;;;;;;;34.50;16.77;;;3.10;99.90;;;;;;5019734;28;20422;-78
2022/12/06 10:55:07;;;;;;;33.90;15.00;;;3.20;99.90;;;;;;5031059;28;20053;-78
2022/12/06 10:57:37;;;;;;;;;;;3.20;99.90;;;;;;5029649;28;20109;-77
2022/12/06 11:00:13;;;;;;;35.05;15.40;;;3.20;99.90;;;;;;5024082;28;19992;-77
2022/12/06 11:02:49;;;;;;;39.38;17.42;;;3.20;99.90;;;;;;5028801;28;20028;-78
2022/12/06 11:05:34;;;;;;;39.50;18.35;;;3.20;99.90;;;;;;5028176;28;20054;-78
2022/12/06 11:08:09;;;;;;;38.80;16.85;;;3.20;99.90;;;;;;5026099;28;20040;-78
2022/12/06 11:10:37;;;;;;;42.67;20.00;;;3.20;99.90;;;;;;5018687;28;20368;-78
2022/12/06 11:13:18;;;;;;;48.72;19.92;;;3.20;99.90;;;;;;5031889;28;20068;-77
2022/12/06 11:16:03;;;;;;;39.75;18.23;;;3.20;99.90;;;;;;5016392;28;20040;-77
2022/12/06 11:18:30;;;;;;;45.50;19.05;;;3.20;99.90;;;;;;5028457;28;20171;-77
2022/12/06 11:21:25;;;;;;;40.75;19.13;;;3.20;99.90;;;;;;5030041;28;20021;-77
2022/12/06 11:24:13;;;;;;;38.75;17.63;;;3.20;99.90;;;;;;5020185;28;20067;-77
2022/12/06 11:27:01;;;;;;;33.17;17.83;;;3.20;99.90;;;;;;5014133;28;20104;-77
2022/12/06 11:29:27;;;;;;;38.63;17.05;;;3.20;99.90;;;;;;5028872;28;20425;-78
2022/12/06 11:32:02;;;;;;;35.00;15.63;;;3.20;99.90;;;;;;5027168;28;20034;-78
2022/12/06 11:34:41;;;;;;;23.52;12.07;;;3.40;99.90;;;;;;5025922;28;20049;-77
2022/12/06 11:37:15;;;;;;;28.88;13.18;;;3.40;99.90;;;;;;5023655;28;20030;-77
2022/12/06 11:39:41;;;;;;;26.05;11.60;;;3.40;99.90;;;;;;5026656;28;20378;-78
2022/12/06 11:42:08;;;;;;;28.40;12.57;;;3.40;99.90;;;;;;5023091;28;20033;-78
2022/12/06 11:44:49;;;;;;;27.17;13.68;;;3.40;99.90;;;;;;5013269;28;20082;-78
2022/12/06 11:47:18;;;;;;;26.35;13.35;;;3.30;99.90;;;;;;5029992;28;20154;-78
2022/12/06 11:49:45;;;;;;;27.88;14.73;;;3.30;99.90;;;;;;5036861;28;20041;-78
2022/12/06 11:52:32;;;;;;;29.55;14.75;;;3.30;99.90;;;;;;5028414;28;20025;-77
2022/12/06 11:55:06;;;;;;;29.33;15.00;;;3.30;99.90;;;;;;5028891;28;20044;-78
2022/12/06 11:57:37;;;;;;;33.45;16.73;;;3.40;99.90;;;;;;5035376;28;20119;-78
2022/12/06 12:00:12;;;;;;;31.40;16.85;;;3.30;99.90;;;;;;5034947;28;20048;-78
2022/12/06 12:02:39;;;;;;;36.40;18.95;;;3.30;99.90;;;;;;5022286;28;20030;-78
2022/12/06 12:05:18;;;;;;;34.65;18.13;;;3.30;99.90;;;;;;5021737;28;20029;-77
2022/12/06 12:07:48;;;;;;;40.95;18.90;;;3.30;99.90;;;;;;5025010;28;20025;-78
2022/12/06 12:10:37;;;;;;;34.97;19.05;;;3.20;99.90;;;;;;5024197;28;20044;-78
2022/12/06 12:15:59;;;;;;;37.60;17.77;;;3.20;99.90;;;;;;5022872;28;20036;-78
2022/12/06 12:18:30;;;;;;;34.95;18.90;;;3.20;99.90;;;;;;5021158;28;20433;-78
2022/12/06 12:20:58;;;;;;;34.08;18.10;;;3.30;99.90;;;;;;5028945;28;20028;-78
2022/12/06 12:23:41;;;;;;;32.53;17.95;;;3.30;99.90;;;;;;5018929;28;20065;-78
2022/12/06 12:26:13;;;;;;;33.55;17.48;;;3.40;99.90;;;;;;5026638;28;20341;-78
2022/12/06 12:28:40;;;;;;;31.88;16.73;;;3.40;99.90;;;;;;5031528;28;20112;-78
2022/12/06 12:31:18;;;;;;;33.03;17.58;;;3.40;99.90;;;;;;5026800;28;20460;-78
2022/12/06 12:33:44;;;;;;;33.38;17.92;;;3.40;99.90;;;;;;5018135;28;20441;-78
2022/12/06 12:36:18;;;;;;;27.83;15.60;;;3.40;99.90;;;;;;5027919;28;20039;-78
2022/12/06 12:38:55;;;;;;;28.55;15.70;;;3.30;99.90;;;;;;5028709;28;20031;-78
2022/12/06 12:41:37;;;;;;;30.33;15.57;;;3.30;99.90;;;;;;5030945;28;20384;-78
2022/12/06 12:44:22;;;;;;;24.98;14.50;;;3.30;99.90;;;;;;5027344;28;20029;-78
2022/12/06 12:46:55;;;;;;;25.23;14.02;;;3.30;99.90;;;;;;5027904;28;20025;-78
2022/12/06 12:49:40;;;;;;;21.77;14.27;;;3.20;99.60;;;;;;5031871;28;20033;-78
2022/12/06 12:52:35;;;;;;;23.88;13.48;;;3.20;99.50;;;;;;5023515;28;20066;-78
2022/12/06 12:55:17;;;;;;;24.15;13.55;;;3.30;99.70;;;;;;5023887;28;20056;-78
2022/12/06 12:57:45;;;;;;;24.38;14.05;;;3.30;99.50;;;;;;5027498;28;20034;-78
2022/12/06 13:00:23;;;;;;;21.63;13.38;;;3.30;99.50;;;;;;5023640;28;20025;-78
2022/12/06 13:02:56;;;;;;;19.80;12.57;;;3.30;99.40;;;;;;5019302;28;20014;-78
2022/12/06 13:05:30;;;;;;;24.52;13.45;;;3.30;99.50;;;;;;5023522;28;20017;-77
2022/12/06 13:08:05;;;;;;;19.63;11.45;;;3.30;99.30;;;;;;5017714;28;20122;-77
2022/12/06 13:10:34;;;;;;;19.45;11.32;;;3.20;99.10;;;;;;5021280;28;20051;-78
2022/12/06 13:13:11;;;;;;;17.60;11.88;;;3.20;99.20;;;;;;5026996;28;20022;-78
2022/12/06 13:15:48;;;;;;;20.40;11.50;;;3.20;99.20;;;;;;5038096;28;20567;-78
2022/12/06 13:18:27;;;;;;;19.25;11.82;;;3.10;98.90;;;;;;5026742;28;20049;-78
2022/12/06 13:20:55;;;;;;;18.33;10.68;;;3.10;98.90;;;;;;5028375;28;20104;-78
2022/12/06 13:23:25;;;;;;;19.95;11.82;;;3.10;98.80;;;;;;5018207;28;20064;-78
2022/12/06 13:26:12;;;;;;;20.48;13.45;;;3.10;99.00;;;;;;5028320;28;20025;-78
2022/12/06 13:28:41;;;;;;;19.55;13.00;;;3.00;98.80;;;;;;5018512;28;20017;-78
2022/12/06 13:31:17;;;;;;;19.20;12.88;;;3.00;98.80;;;;;;5027822;28;20044;-78
2022/12/06 13:33:52;;;;;;;21.80;13.90;;;3.10;98.80;;;;;;5021534;28;20033;-77